sensor_id;sensor_type;location;lat;lon;timestamp;P1;durP1;ratioP1;P2;durP2;ratioP2
62102;SDS011;48077;48.104;11.702;2023-11-22T00:04:22;13.40;;;7.07;;
62102;SDS011;48077;48.104;11.702;2023-11-22T00:06:50;11.77;;;7.32;;
62102;SDS011;48077;48.104;11.702;2023-11-22T00:09:17;15.18;;;8.13;;
62102;SDS011;48077;48.104;11.702;2023-11-22T00:11:49;15.25;;;7.03;;
62102;SDS011;48077;48.104;11.702;2023-11-22T00:14:18;11.73;;;6.75;;
62102;SDS011;48077;48.104;11.702;2023-11-22T00:16:45;14.43;;;7.35;;
62102;SDS011;48077;48.104;11.702;2023-11-22T00:19:14;15.05;;;7.53;;
62102;SDS011;48077;48.104;11.702;2023-11-22T00:21:44;13.23;;;7.97;;
62102;SDS011;48077;48.104;11.702;2023-11-22T00:26:39;14.30;;;7.53;;
62102;SDS011;48077;48.104;11.702;2023-11-22T00:29:07;15.77;;;7.63;;
62102;SDS011;48077;48.104;11.702;2023-11-22T00:31:36;12.98;;;7.32;;
62102;SDS011;48077;48.104;11.702;2023-11-22T00:34:04;12.27;;;6.80;;
62102;SDS011;48077;48.104;11.702;2023-11-22T00:36:33;13.27;;;7.00;;
62102;SDS011;48077;48.104;11.702;2023-11-22T00:41:29;11.65;;;7.22;;
62102;SDS011;48077;48.104;11.702;2023-11-22T00:43:58;12.98;;;6.90;;
62102;SDS011;48077;48.104;11.702;2023-11-22T00:46:26;13.85;;;8.13;;
62102;SDS011;48077;48.104;11.702;2023-11-22T00:48:55;20.48;;;7.57;;
62102;SDS011;48077;48.104;11.702;2023-11-22T00:51:23;12.02;;;8.05;;
62102;SDS011;48077;48.104;11.702;2023-11-22T00:53:50;13.55;;;7.97;;
62102;SDS011;48077;48.104;11.702;2023-11-22T00:56:18;9.40;;;6.13;;
62102;SDS011;48077;48.104;11.702;2023-11-22T00:58:46;11.88;;;7.55;;
62102;SDS011;48077;48.104;11.702;2023-11-22T01:01:15;11.63;;;6.47;;
62102;SDS011;48077;48.104;11.702;2023-11-22T01:07:44;9.15;;;5.75;;
62102;SDS011;48077;48.104;11.702;2023-11-22T01:10:12;14.00;;;7.20;;
62102;SDS011;48077;48.104;11.702;2023-11-22T01:12:40;10.65;;;7.05;;
62102;SDS011;48077;48.104;11.702;2023-11-22T01:15:08;14.25;;;6.78;;
62102;SDS011;48077;48.104;11.702;2023-11-22T01:17:36;12.70;;;6.47;;
62102;SDS011;48077;48.104;11.702;2023-11-22T01:20:04;13.43;;;7.00;;
62102;SDS011;48077;48.104;11.702;2023-11-22T01:22:37;10.32;;;6.40;;
62102;SDS011;48077;48.104;11.702;2023-11-22T01:27:34;9.38;;;5.65;;
62102;SDS011;48077;48.104;11.702;2023-11-22T01:32:31;8.90;;;5.60;;
62102;SDS011;48077;48.104;11.702;2023-11-22T01:37:28;8.40;;;5.47;;
62102;SDS011;48077;48.104;11.702;2023-11-22T01:39:56;9.73;;;6.72;;
62102;SDS011;48077;48.104;11.702;2023-11-22T01:42:25;13.50;;;6.53;;
62102;SDS011;48077;48.104;11.702;2023-11-22T01:44:52;10.32;;;5.95;;
62102;SDS011;48077;48.104;11.702;2023-11-22T01:49:48;10.75;;;7.15;;
62102;SDS011;48077;48.104;11.702;2023-11-22T01:52:16;10.60;;;5.80;;
62102;SDS011;48077;48.104;11.702;2023-11-22T01:57:12;15.23;;;6.25;;
62102;SDS011;48077;48.104;11.702;2023-11-22T01:59:42;10.38;;;5.30;;
62102;SDS011;48077;48.104;11.702;2023-11-22T02:02:14;10.13;;;5.90;;
62102;SDS011;48077;48.104;11.702;2023-11-22T02:04:42;8.30;;;5.57;;
62102;SDS011;48077;48.104;11.702;2023-11-22T02:07:09;9.23;;;5.60;;
62102;SDS011;48077;48.104;11.702;2023-11-22T02:09:37;9.77;;;5.13;;
62102;SDS011;48077;48.104;11.702;2023-11-22T02:12:05;10.10;;;5.55;;
62102;SDS011;48077;48.104;11.702;2023-11-22T02:14:34;9.15;;;4.88;;
62102;SDS011;48077;48.104;11.702;2023-11-22T02:19:31;7.00;;;4.70;;
62102;SDS011;48077;48.104;11.702;2023-11-22T02:21:59;6.45;;;5.30;;
62102;SDS011;48077;48.104;11.702;2023-11-22T02:24:28;8.40;;;4.65;;
62102;SDS011;48077;48.104;11.702;2023-11-22T02:26:55;6.57;;;4.80;;
62102;SDS011;48077;48.104;11.702;2023-11-22T02:29:23;8.48;;;5.13;;
62102;SDS011;48077;48.104;11.702;2023-11-22T02:31:51;6.35;;;3.70;;
62102;SDS011;48077;48.104;11.702;2023-11-22T02:36:46;4.40;;;3.30;;
62102;SDS011;48077;48.104;11.702;2023-11-22T02:39:29;4.55;;;3.55;;
62102;SDS011;48077;48.104;11.702;2023-11-22T02:42:04;5.93;;;3.47;;
62102;SDS011;48077;48.104;11.702;2023-11-22T02:44:32;7.25;;;3.67;;
62102;SDS011;48077;48.104;11.702;2023-11-22T02:46:59;5.07;;;4.05;;
62102;SDS011;48077;48.104;11.702;2023-11-22T02:49:27;6.20;;;3.45;;
62102;SDS011;48077;48.104;11.702;2023-11-22T02:51:55;4.75;;;4.25;;
62102;SDS011;48077;48.104;11.702;2023-11-22T02:54:23;3.47;;;2.80;;
62102;SDS011;48077;48.104;11.702;2023-11-22T02:56:52;4.90;;;3.33;;
62102;SDS011;48077;48.104;11.702;2023-11-22T02:59:20;4.38;;;3.10;;
62102;SDS011;48077;48.104;11.702;2023-11-22T03:01:47;4.07;;;3.15;;
62102;SDS011;48077;48.104;11.702;2023-11-22T03:04:18;4.63;;;3.15;;
62102;SDS011;48077;48.104;11.702;2023-11-22T03:06:45;6.13;;;3.08;;
62102;SDS011;48077;48.104;11.702;2023-11-22T03:09:14;4.45;;;3.75;;
62102;SDS011;48077;48.104;11.702;2023-11-22T03:11:41;4.60;;;3.33;;
62102;SDS011;48077;48.104;11.702;2023-11-22T03:14:10;4.32;;;3.92;;
62102;SDS011;48077;48.104;11.702;2023-11-22T03:16:38;5.50;;;2.90;;
62102;SDS011;48077;48.104;11.702;2023-11-22T03:19:06;4.82;;;3.53;;
62102;SDS011;48077;48.104;11.702;2023-11-22T03:21:34;3.42;;;2.80;;
62102;SDS011;48077;48.104;11.702;2023-11-22T03:24:02;5.28;;;3.65;;
62102;SDS011;48077;48.104;11.702;2023-11-22T03:26:30;9.25;;;5.03;;
62102;SDS011;48077;48.104;11.702;2023-11-22T03:28:58;6.82;;;3.85;;
62102;SDS011;48077;48.104;11.702;2023-11-22T03:31:28;3.90;;;3.38;;
62102;SDS011;48077;48.104;11.702;2023-11-22T03:33:56;7.72;;;4.75;;
62102;SDS011;48077;48.104;11.702;2023-11-22T03:36:24;4.95;;;3.83;;
62102;SDS011;48077;48.104;11.702;2023-11-22T03:38:52;3.78;;;3.35;;
62102;SDS011;48077;48.104;11.702;2023-11-22T03:41:19;4.40;;;2.97;;
62102;SDS011;48077;48.104;11.702;2023-11-22T03:43:48;5.22;;;3.28;;
62102;SDS011;48077;48.104;11.702;2023-11-22T03:46:16;4.78;;;3.40;;
62102;SDS011;48077;48.104;11.702;2023-11-22T03:48:45;4.60;;;3.22;;
62102;SDS011;48077;48.104;11.702;2023-11-22T03:51:13;6.10;;;3.33;;
62102;SDS011;48077;48.104;11.702;2023-11-22T03:53:41;5.68;;;3.92;;
62102;SDS011;48077;48.104;11.702;2023-11-22T03:56:08;4.45;;;3.58;;
62102;SDS011;48077;48.104;11.702;2023-11-22T04:01:57;4.80;;;3.70;;
62102;SDS011;48077;48.104;11.702;2023-11-22T04:04:26;4.43;;;3.25;;
62102;SDS011;48077;48.104;11.702;2023-11-22T04:06:54;5.30;;;4.03;;
62102;SDS011;48077;48.104;11.702;2023-11-22T04:09:22;4.50;;;2.58;;
62102;SDS011;48077;48.104;11.702;2023-11-22T04:11:50;6.40;;;3.70;;
62102;SDS011;48077;48.104;11.702;2023-11-22T04:14:18;4.45;;;3.15;;
62102;SDS011;48077;48.104;11.702;2023-11-22T04:16:46;3.95;;;2.88;;
62102;SDS011;48077;48.104;11.702;2023-11-22T04:19:15;6.75;;;3.60;;
62102;SDS011;48077;48.104;11.702;2023-11-22T04:21:44;6.35;;;5.03;;
62102;SDS011;48077;48.104;11.702;2023-11-22T04:24:12;3.60;;;2.75;;
62102;SDS011;48077;48.104;11.702;2023-11-22T04:26:40;4.22;;;2.83;;
62102;SDS011;48077;48.104;11.702;2023-11-22T04:29:07;6.13;;;3.90;;
62102;SDS011;48077;48.104;11.702;2023-11-22T04:31:35;4.78;;;3.58;;
62102;SDS011;48077;48.104;11.702;2023-11-22T04:34:03;5.18;;;3.10;;
62102;SDS011;48077;48.104;11.702;2023-11-22T04:36:32;6.47;;;3.40;;
62102;SDS011;48077;48.104;11.702;2023-11-22T04:39:00;4.78;;;3.80;;
62102;SDS011;48077;48.104;11.702;2023-11-22T04:41:29;5.32;;;3.47;;
62102;SDS011;48077;48.104;11.702;2023-11-22T04:43:57;4.90;;;2.88;;
62102;SDS011;48077;48.104;11.702;2023-11-22T04:46:25;3.75;;;2.83;;
62102;SDS011;48077;48.104;11.702;2023-11-22T04:48:53;5.05;;;3.35;;
62102;SDS011;48077;48.104;11.702;2023-11-22T04:51:21;6.53;;;3.85;;
62102;SDS011;48077;48.104;11.702;2023-11-22T04:53:50;6.20;;;3.05;;
62102;SDS011;48077;48.104;11.702;2023-11-22T04:56:19;5.32;;;3.88;;
62102;SDS011;48077;48.104;11.702;2023-11-22T04:58:47;3.72;;;2.78;;
62102;SDS011;48077;48.104;11.702;2023-11-22T05:01:15;4.47;;;2.92;;
62102;SDS011;48077;48.104;11.702;2023-11-22T05:03:46;6.57;;;3.50;;
62102;SDS011;48077;48.104;11.702;2023-11-22T05:06:14;6.13;;;4.15;;
62102;SDS011;48077;48.104;11.702;2023-11-22T05:08:42;4.55;;;3.10;;
62102;SDS011;48077;48.104;11.702;2023-11-22T05:11:10;5.25;;;3.33;;
62102;SDS011;48077;48.104;11.702;2023-11-22T05:13:39;4.72;;;3.30;;
62102;SDS011;48077;48.104;11.702;2023-11-22T05:16:08;4.88;;;3.00;;
62102;SDS011;48077;48.104;11.702;2023-11-22T05:18:36;4.35;;;3.40;;
62102;SDS011;48077;48.104;11.702;2023-11-22T05:21:03;4.80;;;3.70;;
62102;SDS011;48077;48.104;11.702;2023-11-22T05:23:31;3.70;;;3.17;;
62102;SDS011;48077;48.104;11.702;2023-11-22T05:25:59;4.40;;;3.95;;
62102;SDS011;48077;48.104;11.702;2023-11-22T05:30:56;4.30;;;2.83;;
62102;SDS011;48077;48.104;11.702;2023-11-22T05:33:24;3.20;;;2.90;;
62102;SDS011;48077;48.104;11.702;2023-11-22T05:35:51;6.75;;;3.13;;
62102;SDS011;48077;48.104;11.702;2023-11-22T05:38:20;4.07;;;3.67;;
62102;SDS011;48077;48.104;11.702;2023-11-22T05:43:15;5.75;;;3.25;;
62102;SDS011;48077;48.104;11.702;2023-11-22T05:45:44;4.28;;;2.88;;
62102;SDS011;48077;48.104;11.702;2023-11-22T05:48:17;4.13;;;3.10;;
62102;SDS011;48077;48.104;11.702;2023-11-22T05:50:45;6.03;;;3.30;;
62102;SDS011;48077;48.104;11.702;2023-11-22T05:53:13;3.80;;;2.92;;
62102;SDS011;48077;48.104;11.702;2023-11-22T05:55:45;4.50;;;3.38;;
62102;SDS011;48077;48.104;11.702;2023-11-22T05:58:14;4.35;;;3.20;;
62102;SDS011;48077;48.104;11.702;2023-11-22T06:00:42;3.35;;;2.65;;
62102;SDS011;48077;48.104;11.702;2023-11-22T06:05:39;3.80;;;2.92;;
62102;SDS011;48077;48.104;11.702;2023-11-22T06:08:08;4.25;;;2.65;;
62102;SDS011;48077;48.104;11.702;2023-11-22T06:10:36;3.80;;;2.80;;
62102;SDS011;48077;48.104;11.702;2023-11-22T06:13:08;4.22;;;2.70;;
62102;SDS011;48077;48.104;11.702;2023-11-22T06:15:36;4.22;;;2.38;;
62102;SDS011;48077;48.104;11.702;2023-11-22T06:18:04;4.55;;;3.33;;
62102;SDS011;48077;48.104;11.702;2023-11-22T06:23:01;3.22;;;2.70;;
62102;SDS011;48077;48.104;11.702;2023-11-22T06:25:29;3.22;;;2.63;;
62102;SDS011;48077;48.104;11.702;2023-11-22T06:27:57;4.05;;;3.50;;
62102;SDS011;48077;48.104;11.702;2023-11-22T06:30:27;5.13;;;2.20;;
62102;SDS011;48077;48.104;11.702;2023-11-22T06:32:56;3.67;;;2.10;;
62102;SDS011;48077;48.104;11.702;2023-11-22T06:35:24;4.10;;;2.88;;
62102;SDS011;48077;48.104;11.702;2023-11-22T06:37:52;3.40;;;2.38;;
62102;SDS011;48077;48.104;11.702;2023-11-22T06:40:21;4.28;;;2.88;;
62102;SDS011;48077;48.104;11.702;2023-11-22T06:42:49;3.88;;;2.65;;
62102;SDS011;48077;48.104;11.702;2023-11-22T06:45:17;4.15;;;3.17;;
62102;SDS011;48077;48.104;11.702;2023-11-22T06:47:45;5.05;;;3.35;;
62102;SDS011;48077;48.104;11.702;2023-11-22T06:50:13;5.22;;;3.08;;
62102;SDS011;48077;48.104;11.702;2023-11-22T06:52:42;4.47;;;3.65;;
62102;SDS011;48077;48.104;11.702;2023-11-22T06:55:10;4.40;;;4.00;;
62102;SDS011;48077;48.104;11.702;2023-11-22T06:57:39;4.57;;;3.58;;
62102;SDS011;48077;48.104;11.702;2023-11-22T07:00:08;4.95;;;3.47;;
62102;SDS011;48077;48.104;11.702;2023-11-22T07:02:36;5.47;;;3.22;;
62102;SDS011;48077;48.104;11.702;2023-11-22T07:05:05;4.32;;;2.80;;
62102;SDS011;48077;48.104;11.702;2023-11-22T07:07:35;4.63;;;3.05;;
62102;SDS011;48077;48.104;11.702;2023-11-22T07:10:04;3.92;;;3.47;;
62102;SDS011;48077;48.104;11.702;2023-11-22T07:12:33;4.18;;;3.78;;
62102;SDS011;48077;48.104;11.702;2023-11-22T07:15:03;3.78;;;2.92;;
62102;SDS011;48077;48.104;11.702;2023-11-22T07:17:32;4.68;;;3.63;;
62102;SDS011;48077;48.104;11.702;2023-11-22T07:20:00;5.13;;;2.97;;
62102;SDS011;48077;48.104;11.702;2023-11-22T07:22:28;5.35;;;3.50;;
62102;SDS011;48077;48.104;11.702;2023-11-22T07:24:56;5.05;;;4.50;;
62102;SDS011;48077;48.104;11.702;2023-11-22T07:27:27;7.00;;;4.18;;
62102;SDS011;48077;48.104;11.702;2023-11-22T07:29:55;4.25;;;3.60;;
62102;SDS011;48077;48.104;11.702;2023-11-22T07:34:52;5.35;;;3.83;;
62102;SDS011;48077;48.104;11.702;2023-11-22T07:37:22;4.65;;;2.95;;
62102;SDS011;48077;48.104;11.702;2023-11-22T07:39:50;5.20;;;3.88;;
62102;SDS011;48077;48.104;11.702;2023-11-22T07:42:18;8.50;;;3.83;;
62102;SDS011;48077;48.104;11.702;2023-11-22T07:44:46;6.10;;;4.05;;
62102;SDS011;48077;48.104;11.702;2023-11-22T07:49:43;4.47;;;4.03;;
62102;SDS011;48077;48.104;11.702;2023-11-22T07:52:12;6.20;;;3.53;;
62102;SDS011;48077;48.104;11.702;2023-11-22T07:54:40;4.72;;;3.47;;
62102;SDS011;48077;48.104;11.702;2023-11-22T07:59:36;4.50;;;3.58;;
62102;SDS011;48077;48.104;11.702;2023-11-22T08:02:04;3.75;;;3.33;;
62102;SDS011;48077;48.104;11.702;2023-11-22T08:04:37;5.20;;;4.40;;
62102;SDS011;48077;48.104;11.702;2023-11-22T08:07:10;6.22;;;4.30;;
62102;SDS011;48077;48.104;11.702;2023-11-22T08:09:39;4.63;;;3.83;;
62102;SDS011;48077;48.104;11.702;2023-11-22T08:12:07;5.15;;;4.05;;
62102;SDS011;48077;48.104;11.702;2023-11-22T08:14:37;6.65;;;3.08;;
62102;SDS011;48077;48.104;11.702;2023-11-22T08:17:06;4.43;;;3.53;;
62102;SDS011;48077;48.104;11.702;2023-11-22T08:19:35;4.50;;;3.80;;
62102;SDS011;48077;48.104;11.702;2023-11-22T08:22:05;5.13;;;3.30;;
62102;SDS011;48077;48.104;11.702;2023-11-22T08:24:35;4.55;;;3.33;;
62102;SDS011;48077;48.104;11.702;2023-11-22T08:27:03;4.45;;;2.85;;
62102;SDS011;48077;48.104;11.702;2023-11-22T08:29:33;5.90;;;3.60;;
62102;SDS011;48077;48.104;11.702;2023-11-22T08:32:01;4.25;;;2.97;;
62102;SDS011;48077;48.104;11.702;2023-11-22T08:36:57;3.78;;;3.35;;
62102;SDS011;48077;48.104;11.702;2023-11-22T08:39:26;10.73;;;4.32;;
62102;SDS011;48077;48.104;11.702;2023-11-22T08:41:55;4.60;;;3.28;;
62102;SDS011;48077;48.104;11.702;2023-11-22T08:44:24;6.32;;;4.03;;
62102;SDS011;48077;48.104;11.702;2023-11-22T08:46:52;5.65;;;3.55;;
62102;SDS011;48077;48.104;11.702;2023-11-22T08:51:47;8.40;;;5.00;;
62102;SDS011;48077;48.104;11.702;2023-11-22T08:54:15;9.32;;;5.18;;
62102;SDS011;48077;48.104;11.702;2023-11-22T08:56:44;6.47;;;3.70;;
62102;SDS011;48077;48.104;11.702;2023-11-22T08:59:14;6.20;;;4.40;;
62102;SDS011;48077;48.104;11.702;2023-11-22T09:01:43;4.22;;;3.08;;
62102;SDS011;48077;48.104;11.702;2023-11-22T09:04:11;4.78;;;4.03;;
62102;SDS011;48077;48.104;11.702;2023-11-22T09:06:39;7.32;;;4.47;;
62102;SDS011;48077;48.104;11.702;2023-11-22T09:09:07;5.07;;;4.25;;
62102;SDS011;48077;48.104;11.702;2023-11-22T09:11:35;5.85;;;4.68;;
62102;SDS011;48077;48.104;11.702;2023-11-22T09:14:03;5.35;;;4.38;;
62102;SDS011;48077;48.104;11.702;2023-11-22T09:16:35;6.57;;;5.15;;
62102;SDS011;48077;48.104;11.702;2023-11-22T09:19:05;5.30;;;4.00;;
62102;SDS011;48077;48.104;11.702;2023-11-22T09:21:33;5.80;;;4.45;;
62102;SDS011;48077;48.104;11.702;2023-11-22T09:24:01;8.65;;;5.18;;
62102;SDS011;48077;48.104;11.702;2023-11-22T09:26:32;7.93;;;4.65;;
62102;SDS011;48077;48.104;11.702;2023-11-22T09:29:00;7.63;;;5.35;;
62102;SDS011;48077;48.104;11.702;2023-11-22T09:31:28;9.68;;;4.78;;
62102;SDS011;48077;48.104;11.702;2023-11-22T09:33:57;6.43;;;4.22;;
62102;SDS011;48077;48.104;11.702;2023-11-22T09:36:25;7.05;;;4.28;;
62102;SDS011;48077;48.104;11.702;2023-11-22T09:38:54;6.15;;;4.18;;
62102;SDS011;48077;48.104;11.702;2023-11-22T09:41:21;6.50;;;4.90;;
62102;SDS011;48077;48.104;11.702;2023-11-22T09:43:51;4.85;;;4.35;;
62102;SDS011;48077;48.104;11.702;2023-11-22T09:46:19;6.20;;;4.15;;
62102;SDS011;48077;48.104;11.702;2023-11-22T09:48:50;6.20;;;4.80;;
62102;SDS011;48077;48.104;11.702;2023-11-22T09:51:24;5.82;;;4.45;;
62102;SDS011;48077;48.104;11.702;2023-11-22T09:56:26;5.60;;;3.72;;
62102;SDS011;48077;48.104;11.702;2023-11-22T09:58:55;5.80;;;4.38;;
62102;SDS011;48077;48.104;11.702;2023-11-22T10:01:27;4.85;;;4.35;;
62102;SDS011;48077;48.104;11.702;2023-11-22T10:03:57;5.72;;;3.90;;
62102;SDS011;48077;48.104;11.702;2023-11-22T10:06:28;6.20;;;3.85;;
62102;SDS011;48077;48.104;11.702;2023-11-22T10:09:00;4.50;;;3.22;;
62102;SDS011;48077;48.104;11.702;2023-11-22T10:11:31;4.20;;;3.35;;
62102;SDS011;48077;48.104;11.702;2023-11-22T10:13:59;5.25;;;3.60;;
62102;SDS011;48077;48.104;11.702;2023-11-22T10:16:27;5.38;;;4.10;;
62102;SDS011;48077;48.104;11.702;2023-11-22T10:21:23;4.10;;;3.08;;
62102;SDS011;48077;48.104;11.702;2023-11-22T10:23:54;7.38;;;5.50;;
62102;SDS011;48077;48.104;11.702;2023-11-22T10:26:24;6.68;;;4.50;;
62102;SDS011;48077;48.104;11.702;2023-11-22T10:28:54;5.80;;;4.05;;
62102;SDS011;48077;48.104;11.702;2023-11-22T10:31:23;4.07;;;3.38;;
62102;SDS011;48077;48.104;11.702;2023-11-22T10:33:52;5.13;;;3.33;;
62102;SDS011;48077;48.104;11.702;2023-11-22T10:36:21;4.65;;;4.18;;
62102;SDS011;48077;48.104;11.702;2023-11-22T10:38:50;5.25;;;3.85;;
62102;SDS011;48077;48.104;11.702;2023-11-22T10:41:19;4.35;;;3.80;;
62102;SDS011;48077;48.104;11.702;2023-11-22T10:43:48;6.55;;;3.40;;
62102;SDS011;48077;48.104;11.702;2023-11-22T10:46:19;4.53;;;3.15;;
62102;SDS011;48077;48.104;11.702;2023-11-22T10:48:48;5.47;;;3.85;;
62102;SDS011;48077;48.104;11.702;2023-11-22T10:51:16;3.80;;;3.28;;
62102;SDS011;48077;48.104;11.702;2023-11-22T10:53:48;4.85;;;4.38;;
62102;SDS011;48077;48.104;11.702;2023-11-22T10:56:19;5.40;;;3.75;;
62102;SDS011;48077;48.104;11.702;2023-11-22T10:58:50;5.53;;;3.58;;
62102;SDS011;48077;48.104;11.702;2023-11-22T11:01:18;4.63;;;4.07;;
62102;SDS011;48077;48.104;11.702;2023-11-22T11:03:51;4.13;;;3.72;;
62102;SDS011;48077;48.104;11.702;2023-11-22T11:06:24;2.97;;;2.78;;
62102;SDS011;48077;48.104;11.702;2023-11-22T11:08:58;3.85;;;3.15;;
62102;SDS011;48077;48.104;11.702;2023-11-22T11:11:29;4.53;;;3.75;;
62102;SDS011;48077;48.104;11.702;2023-11-22T11:13:59;3.53;;;3.15;;
62102;SDS011;48077;48.104;11.702;2023-11-22T11:16:29;5.20;;;4.13;;
62102;SDS011;48077;48.104;11.702;2023-11-22T11:19:00;4.55;;;3.75;;
62102;SDS011;48077;48.104;11.702;2023-11-22T11:21:30;4.38;;;3.70;;
62102;SDS011;48077;48.104;11.702;2023-11-22T11:24:00;4.93;;;3.55;;
62102;SDS011;48077;48.104;11.702;2023-11-22T11:26:32;5.10;;;3.88;;
62102;SDS011;48077;48.104;11.702;2023-11-22T11:29:02;4.70;;;3.70;;
62102;SDS011;48077;48.104;11.702;2023-11-22T11:31:31;3.60;;;3.28;;
62102;SDS011;48077;48.104;11.702;2023-11-22T11:33:59;7.30;;;4.60;;
62102;SDS011;48077;48.104;11.702;2023-11-22T11:36:28;4.80;;;3.72;;
62102;SDS011;48077;48.104;11.702;2023-11-22T11:38:59;21.48;;;8.05;;
62102;SDS011;48077;48.104;11.702;2023-11-22T11:41:31;10.02;;;6.05;;
62102;SDS011;48077;48.104;11.702;2023-11-22T11:44:03;11.18;;;5.28;;
62102;SDS011;48077;48.104;11.702;2023-11-22T11:46:36;5.65;;;4.35;;
62102;SDS011;48077;48.104;11.702;2023-11-22T11:49:06;3.55;;;3.15;;
62102;SDS011;48077;48.104;11.702;2023-11-22T11:51:35;10.48;;;5.43;;
62102;SDS011;48077;48.104;11.702;2023-11-22T11:54:04;3.10;;;2.38;;
62102;SDS011;48077;48.104;11.702;2023-11-22T11:56:34;10.10;;;6.32;;
62102;SDS011;48077;48.104;11.702;2023-11-22T11:59:02;15.88;;;7.65;;
62102;SDS011;48077;48.104;11.702;2023-11-22T12:04:00;19.40;;;8.30;;
62102;SDS011;48077;48.104;11.702;2023-11-22T12:06:28;5.20;;;3.30;;
62102;SDS011;48077;48.104;11.702;2023-11-22T12:08:57;11.52;;;6.78;;
62102;SDS011;48077;48.104;11.702;2023-11-22T12:11:25;4.75;;;3.58;;
62102;SDS011;48077;48.104;11.702;2023-11-22T12:13:54;3.97;;;3.63;;
62102;SDS011;48077;48.104;11.702;2023-11-22T12:16:23;3.67;;;3.33;;
62102;SDS011;48077;48.104;11.702;2023-11-22T12:18:50;2.97;;;2.70;;
62102;SDS011;48077;48.104;11.702;2023-11-22T12:21:18;4.38;;;3.90;;
62102;SDS011;48077;48.104;11.702;2023-11-22T12:23:47;3.28;;;2.85;;
62102;SDS011;48077;48.104;11.702;2023-11-22T12:26:16;3.83;;;2.92;;
62102;SDS011;48077;48.104;11.702;2023-11-22T12:28:47;6.70;;;4.22;;
62102;SDS011;48077;48.104;11.702;2023-11-22T12:31:32;5.93;;;3.60;;
62102;SDS011;48077;48.104;11.702;2023-11-22T12:34:02;4.85;;;4.35;;
62102;SDS011;48077;48.104;11.702;2023-11-22T12:36:30;2.92;;;2.60;;
62102;SDS011;48077;48.104;11.702;2023-11-22T12:38:59;3.42;;;2.60;;
62102;SDS011;48077;48.104;11.702;2023-11-22T12:41:29;2.95;;;2.70;;
62102;SDS011;48077;48.104;11.702;2023-11-22T12:44:02;3.40;;;2.65;;
62102;SDS011;48077;48.104;11.702;2023-11-22T12:46:45;3.63;;;3.33;;
62102;SDS011;48077;48.104;11.702;2023-11-22T12:49:15;2.90;;;2.45;;
62102;SDS011;48077;48.104;11.702;2023-11-22T12:51:46;3.08;;;2.78;;
62102;SDS011;48077;48.104;11.702;2023-11-22T12:54:14;3.15;;;2.30;;
62102;SDS011;48077;48.104;11.702;2023-11-22T12:56:42;2.67;;;2.45;;
62102;SDS011;48077;48.104;11.702;2023-11-22T12:59:10;2.72;;;2.50;;
62102;SDS011;48077;48.104;11.702;2023-11-22T13:01:38;3.97;;;3.63;;
62102;SDS011;48077;48.104;11.702;2023-11-22T13:04:08;3.38;;;3.08;;
62102;SDS011;48077;48.104;11.702;2023-11-22T13:06:36;3.78;;;2.95;;
62102;SDS011;48077;48.104;11.702;2023-11-22T13:09:04;3.47;;;2.65;;
62102;SDS011;48077;48.104;11.702;2023-11-22T13:11:32;4.82;;;4.03;;
62102;SDS011;48077;48.104;11.702;2023-11-22T13:14:01;4.20;;;3.42;;
62102;SDS011;48077;48.104;11.702;2023-11-22T13:18:56;5.97;;;2.75;;
62102;SDS011;48077;48.104;11.702;2023-11-22T13:21:25;7.30;;;4.13;;
62102;SDS011;48077;48.104;11.702;2023-11-22T13:23:53;4.90;;;4.45;;
62102;SDS011;48077;48.104;11.702;2023-11-22T13:26:21;4.25;;;2.92;;
62102;SDS011;48077;48.104;11.702;2023-11-22T13:28:49;5.00;;;3.80;;
62102;SDS011;48077;48.104;11.702;2023-11-22T13:31:18;4.05;;;3.67;;
62102;SDS011;48077;48.104;11.702;2023-11-22T13:33:45;4.10;;;3.78;;
62102;SDS011;48077;48.104;11.702;2023-11-22T13:36:13;3.80;;;3.35;;
62102;SDS011;48077;48.104;11.702;2023-11-22T13:38:42;5.63;;;4.05;;
62102;SDS011;48077;48.104;11.702;2023-11-22T13:41:10;6.97;;;3.42;;
62102;SDS011;48077;48.104;11.702;2023-11-22T13:43:38;4.28;;;3.88;;
62102;SDS011;48077;48.104;11.702;2023-11-22T13:46:06;4.13;;;3.58;;
62102;SDS011;48077;48.104;11.702;2023-11-22T13:48:36;4.43;;;4.03;;
62102;SDS011;48077;48.104;11.702;2023-11-22T13:51:04;4.10;;;3.45;;
62102;SDS011;48077;48.104;11.702;2023-11-22T13:53:36;4.90;;;3.67;;
62102;SDS011;48077;48.104;11.702;2023-11-22T13:56:11;4.85;;;3.95;;
62102;SDS011;48077;48.104;11.702;2023-11-22T13:58:41;7.45;;;3.15;;
62102;SDS011;48077;48.104;11.702;2023-11-22T14:01:09;4.80;;;3.08;;
62102;SDS011;48077;48.104;11.702;2023-11-22T14:03:41;2.88;;;2.63;;
62102;SDS011;48077;48.104;11.702;2023-11-22T14:06:09;4.00;;;3.03;;
62102;SDS011;48077;48.104;11.702;2023-11-22T14:08:40;4.38;;;3.55;;
62102;SDS011;48077;48.104;11.702;2023-11-22T14:11:08;4.57;;;4.03;;
62102;SDS011;48077;48.104;11.702;2023-11-22T14:13:37;4.88;;;3.92;;
62102;SDS011;48077;48.104;11.702;2023-11-22T14:16:06;5.75;;;4.22;;
62102;SDS011;48077;48.104;11.702;2023-11-22T14:18:35;5.68;;;4.10;;
62102;SDS011;48077;48.104;11.702;2023-11-22T14:23:31;4.85;;;4.03;;
62102;SDS011;48077;48.104;11.702;2023-11-22T14:25:59;4.82;;;3.33;;
62102;SDS011;48077;48.104;11.702;2023-11-22T14:28:28;3.53;;;3.08;;
62102;SDS011;48077;48.104;11.702;2023-11-22T14:30:57;4.47;;;4.07;;
62102;SDS011;48077;48.104;11.702;2023-11-22T14:33:25;5.20;;;3.28;;
62102;SDS011;48077;48.104;11.702;2023-11-22T14:35:56;3.85;;;3.13;;
62102;SDS011;48077;48.104;11.702;2023-11-22T14:38:25;7.13;;;3.83;;
62102;SDS011;48077;48.104;11.702;2023-11-22T14:40:53;5.38;;;3.58;;
62102;SDS011;48077;48.104;11.702;2023-11-22T14:43:21;7.25;;;4.25;;
62102;SDS011;48077;48.104;11.702;2023-11-22T14:45:49;3.95;;;3.50;;
62102;SDS011;48077;48.104;11.702;2023-11-22T14:48:19;4.00;;;3.50;;
62102;SDS011;48077;48.104;11.702;2023-11-22T14:50:47;5.68;;;3.20;;
62102;SDS011;48077;48.104;11.702;2023-11-22T14:53:15;5.05;;;3.47;;
62102;SDS011;48077;48.104;11.702;2023-11-22T14:55:43;9.18;;;3.72;;
62102;SDS011;48077;48.104;11.702;2023-11-22T14:58:10;4.30;;;3.25;;
62102;SDS011;48077;48.104;11.702;2023-11-22T15:00:38;5.03;;;3.95;;
62102;SDS011;48077;48.104;11.702;2023-11-22T15:03:06;3.72;;;3.20;;
62102;SDS011;48077;48.104;11.702;2023-11-22T15:05:35;4.53;;;3.95;;
62102;SDS011;48077;48.104;11.702;2023-11-22T15:08:03;4.68;;;4.22;;
62102;SDS011;48077;48.104;11.702;2023-11-22T15:10:32;4.63;;;3.10;;
62102;SDS011;48077;48.104;11.702;2023-11-22T15:12:59;4.95;;;4.07;;
62102;SDS011;48077;48.104;11.702;2023-11-22T15:15:28;4.43;;;4.03;;
62102;SDS011;48077;48.104;11.702;2023-11-22T15:17:56;5.35;;;3.60;;
62102;SDS011;48077;48.104;11.702;2023-11-22T15:20:24;4.20;;;3.85;;
62102;SDS011;48077;48.104;11.702;2023-11-22T15:22:54;4.47;;;3.80;;
62102;SDS011;48077;48.104;11.702;2023-11-22T15:25:22;3.00;;;2.67;;
62102;SDS011;48077;48.104;11.702;2023-11-22T15:27:52;6.55;;;3.65;;
62102;SDS011;48077;48.104;11.702;2023-11-22T15:30:20;5.47;;;3.58;;
62102;SDS011;48077;48.104;11.702;2023-11-22T15:32:48;5.78;;;4.75;;
62102;SDS011;48077;48.104;11.702;2023-11-22T15:35:16;9.15;;;4.78;;
62102;SDS011;48077;48.104;11.702;2023-11-22T15:37:44;6.65;;;3.83;;
62102;SDS011;48077;48.104;11.702;2023-11-22T15:40:13;7.65;;;4.10;;
62102;SDS011;48077;48.104;11.702;2023-11-22T15:42:43;6.90;;;4.90;;
62102;SDS011;48077;48.104;11.702;2023-11-22T15:45:11;14.68;;;7.32;;
62102;SDS011;48077;48.104;11.702;2023-11-22T15:47:39;8.52;;;5.38;;
62102;SDS011;48077;48.104;11.702;2023-11-22T15:50:07;18.83;;;9.00;;